Skip to Main Content
SEARCH:
Location Air RH Dwp Precip Type Wind Speed Wind Gust Direction Pavement Temperature Date/Time
Hatem Bridge US 40 E/B 35 75 28 None Calm Calm N 30 - 30 11/23/2017 8:39:00 PM
I-270 at I-370 38 53 22 None Calm Calm SW 37 - 40 11/23/2017 8:35:00 PM
I-270 at MD-109 29 74 22 None Calm Calm E 32 - 36 11/23/2017 8:35:00 PM
I-495 at American Legion Bridge 30 78 24 None Calm Calm NW 37 - 39 11/23/2017 8:35:00 PM
I-68 at MD-219 31 62 19 None 10 mph 17 mph W 27 - 33 11/23/2017 8:35:00 PM
I-68 at Savage Mt 31 56 18 None Calm 6 mph SW 32 - 33 11/23/2017 8:35:00 PM
I-68 at Sideling Hill 36 61 23 None Calm Calm NW 37 - 37 11/23/2017 8:35:00 PM
I-68 at WV Line 29 71 21 None Calm Calm N 32 - 32 11/23/2017 8:35:00 PM
I-695 at I-83 31 70 22 None Calm 7 mph NW 34 - 37 11/23/2017 8:35:00 PM
I-70 at Fred-Wash Co. 37 57 23 None Calm Calm E 32 - 38 11/23/2017 8:35:00 PM
I-70 at I-695 29 79 24 None Calm Calm SW 34 - 39 11/23/2017 8:35:00 PM
I-70 at I-81 33 64 22 None Calm Calm SE - 11/23/2017 8:35:00 PM
I-70 at MD-27 35 57 22 None Calm Calm S 36 - 37 11/23/2017 8:35:00 PM
I-70 at MD-32 28 78 22 None Calm Calm N 34 - 35 11/23/2017 8:35:00 PM
I-83 at MD-137 30 77 23 None Calm Calm N 37 - 37 11/23/2017 8:35:00 PM
I-95 at I-695 NE 33 67 23 None Calm Calm NE 35 - 38 11/23/2017 8:39:00 PM
I-95 at Patuxent River 33 76 27 None Calm 8 mph N 38 - 39 11/23/2017 8:35:00 PM
I-95 at Tydings Bridge 33 68 24 None Calm 8 mph N - 11/23/2017 8:35:00 PM
I-95/495 at I-295 39 50 23 None Calm Calm SE 39 - 44 11/23/2017 8:35:00 PM
I-97 at MD-100 32 67 23 None Calm 4 mph SW 35 - 37 11/23/2017 8:35:00 PM
I-97 at MD-32 29 75 22 None 5 mph 7 mph N 35 - 37 11/23/2017 8:35:00 PM
MD 20 at MD 21 30 79 25 None Calm Calm S 37 - 37 11/23/2017 8:35:00 PM
MD 231 at Patuxent River 29 79 24 None Calm Calm SW 35 - 36 11/23/2017 8:35:00 PM
MD 260 at Cox Rd 31 81 26 None Calm Calm W 39 - 39 11/23/2017 8:35:00 PM
MD-135 at Salt Dome 30 65 20 None 4 mph 9 mph W 31 - 31 11/23/2017 8:35:00 PM
MD-140 at MD-97 29 76 23 None Calm Calm N 34 - 34 11/23/2017 8:35:00 PM
MD-200 EB at Bonifant Rd 30 73 23 None Calm 4 mph NW 31 - 31 11/23/2017 8:39:00 PM
MD-200 WB at Muncaster Mill Rd 28 71 20 None Calm Calm N 32 - 33 11/23/2017 8:39:00 PM
MD-213 at Sassafras River 33 77 27 None Calm Calm SW 36 - 36 11/23/2017 8:35:00 PM
MD-24 at Rock St Park 29 85 25 None Calm Calm NE 31 - 31 11/23/2017 8:35:00 PM
MD-30 at PA Line 34 65 23 None Calm 6 mph S 35 - 35 11/23/2017 8:35:00 PM
MD-301 at MD-305 30 74 23 None Calm Calm SE 35 - 36 11/23/2017 8:35:00 PM
MD-33 at Knapps Narrows Drawbridge 36 75 29 None Calm Calm S 41 - 41 11/23/2017 8:35:00 PM
MD-344 at MD-224 29 83 25 None Calm Calm SE 37 - 37 11/23/2017 8:35:00 PM
MD-4 at Patuxent River 33 88 30 None - - No Data Available 37 - 40 11/23/2017 8:35:00 PM
MD-404 at Choptank River 32 81 27 None Calm Calm W 34 - 37 11/23/2017 8:35:00 PM
MD-43 at MD-150 33 75 26 None Calm Calm NW 37 - 40 11/23/2017 8:35:00 PM
MD-51 at Oldtown Salt Dome 26 82 22 None Calm Calm E 37 - 37 11/23/2017 8:35:00 PM
MD-64 at MD-418 29 76 23 None Calm Calm NE 36 - 37 11/23/2017 8:35:00 PM
US 50 East past MD-347 - - - No Data Available - - No Data Available 33 - 33 11/23/2017 8:35:00 PM
US-1 at Baltimore / Harford Co. Line 29 80 23 None Calm Calm NW 33 - 35 11/23/2017 8:35:00 PM
US-1 at Conowingo Dam 33 73 26 None Calm Calm N 40 - 40 11/23/2017 8:35:00 PM
US-13 at US-113 29 85 25 None Calm Calm S 38 - 39 11/23/2017 8:35:00 PM
US-13 at US-50 - - - No Data Available - - No Data Available -
US-15 at MD-140 28 80 23 None Calm Calm SE 34 - 35 11/23/2017 8:35:00 PM
US-301 at MD-5 30 81 25 None Calm Calm S 37 - 39 11/23/2017 8:35:00 PM
US-301 at Potomac 34 79 28 None Calm Calm N 38 - 40 11/23/2017 8:35:00 PM
US-301 on HWN Bridge 40 55 25 None - - No Data Available 36 - 36 11/23/2017 8:39:00 PM
US-340 at MD-180 28 74 21 None Calm Calm E 34 - 35 11/23/2017 8:35:00 PM
US-50 at Choptank 34 89 32 None Calm Calm SE 36 - 38 11/23/2017 8:35:00 PM
US-50 at I-95 41 50 24 None Calm Calm NW 38 - 40 11/23/2017 8:35:00 PM
US-50 at MD-2 35 83 30 None Calm Calm S 37 - 38 11/23/2017 8:35:00 PM
US-50 at MD-331 33 77 26 None Calm Calm S 35 - 40 11/23/2017 8:35:00 PM
US-50 at OC Drawbridge 33 71 25 None Calm 4 mph W 36 - 36 11/23/2017 8:35:00 PM
US-50 at Table Rock Rd 30 64 19 None Calm 6 mph NW 34 - 34 11/23/2017 8:35:00 PM
US-50 Kent Narrow Bridge 38 77 31 None 4 mph 7 mph S 38 - 40 11/23/2017 8:35:00 PM
WPL Pier 31 41 54 26 None 4 mph 4 mph SW 35 - 35 11/23/2017 8:39:00 PM
Location Air RH Dwp Precip Type Wind Speed Wind Gust Direction Pavement Temperature Date/Time